createdAt,value
2023-03-13T00:02:34.747Z,7.91
2023-03-13T00:07:36.363Z,7.95
2023-03-13T00:12:37.950Z,7.96
2023-03-13T00:17:39.609Z,7.98
2023-03-13T00:22:41.202Z,8.01
2023-03-13T00:27:42.850Z,7.99
2023-03-13T00:32:46.339Z,8.03
2023-03-13T00:37:48.052Z,8.00
2023-03-13T00:42:49.658Z,8.03
2023-03-13T00:47:51.746Z,8.05
2023-03-13T00:52:53.494Z,8.13
2023-03-13T00:57:55.124Z,8.16
2023-03-13T01:02:57.031Z,8.21
2023-03-13T01:07:58.978Z,8.28
2023-03-13T01:13:00.745Z,8.42
2023-03-13T01:18:02.435Z,8.51
2023-03-13T01:23:04.056Z,8.51
2023-03-13T01:28:05.656Z,8.61
2023-03-13T01:33:07.296Z,8.63
2023-03-13T01:38:09.218Z,8.69
2023-03-13T01:43:26.964Z,8.75
2023-03-13T01:48:52.506Z,8.80
2023-03-13T01:54:11.771Z,8.95
2023-03-13T01:59:17.022Z,9.06
2023-03-13T02:04:21.848Z,9.08
2023-03-13T02:09:27.067Z,9.12
2023-03-13T02:14:33.636Z,9.17
2023-03-13T02:19:41.803Z,9.21
2023-03-13T02:25:09.244Z,9.28
2023-03-13T02:30:12.082Z,9.35
2023-03-13T02:35:17.134Z,9.44
2023-03-13T02:40:24.511Z,9.59
2023-03-13T02:45:26.432Z,9.71
2023-03-13T02:50:28.160Z,9.68
2023-03-13T02:55:47.859Z,9.70
2023-03-13T03:00:49.766Z,9.80
2023-03-13T03:05:52.328Z,9.77
2023-03-13T03:10:54.096Z,9.81
2023-03-13T03:15:57.770Z,9.94
2023-03-13T03:20:59.481Z,9.94
2023-03-13T03:26:01.623Z,9.94
2023-03-13T03:31:06.689Z,9.97
2023-03-13T03:36:12.364Z,9.97
2023-03-13T03:41:14.593Z,9.98
2023-03-13T03:46:16.394Z,9.98
2023-03-13T03:51:18.281Z,10.08
2023-03-13T03:56:22.130Z,10.10
2023-03-13T04:01:28.708Z,10.10
2023-03-13T04:06:30.664Z,10.16
2023-03-13T04:11:32.887Z,10.17
2023-03-13T04:16:35.041Z,10.22
2023-03-13T04:21:36.995Z,10.21
2023-03-13T04:26:43.963Z,10.16
2023-03-13T04:31:45.777Z,10.24
2023-03-13T04:37:06.133Z,10.35
2023-03-13T04:42:13.884Z,10.45
2023-03-13T04:47:35.822Z,10.41
2023-03-13T04:52:51.342Z,10.47
2023-03-13T04:58:01.055Z,10.56
2023-03-13T05:03:19.735Z,10.63
2023-03-13T05:08:32.226Z,10.58
2023-03-13T05:14:00.067Z,10.63
2023-03-13T05:19:19.400Z,10.59
2023-03-13T05:24:41.905Z,10.57
2023-03-13T05:30:17.362Z,10.62
2023-03-13T05:35:30.567Z,10.77
2023-03-13T05:40:47.745Z,10.70
2023-03-13T05:46:09.557Z,10.67
2023-03-13T05:51:20.625Z,10.63
2023-03-13T05:56:32.751Z,10.71
2023-03-13T06:01:45.271Z,10.70
2023-03-13T06:06:54.611Z,10.74
2023-03-13T06:11:56.826Z,10.67
2023-03-13T06:16:58.765Z,10.62
2023-03-13T06:22:02.736Z,10.54
2023-03-13T06:27:04.547Z,10.36
2023-03-13T06:32:06.703Z,10.24
2023-03-13T06:37:08.442Z,10.19
2023-03-13T06:42:10.238Z,10.17
2023-03-13T06:47:14.366Z,10.09
2023-03-13T06:52:18.763Z,10.13
2023-03-13T06:57:20.951Z,10.15
2023-03-13T07:02:22.629Z,10.17
2023-03-13T07:07:31.796Z,10.07
2023-03-13T07:12:37.584Z,10.10
2023-03-13T07:17:39.340Z,10.11
2023-03-13T07:22:41.138Z,10.15
2023-03-13T07:27:42.772Z,10.07
2023-03-13T07:32:44.618Z,9.91
2023-03-13T07:37:46.337Z,9.94
2023-03-13T07:42:47.965Z,9.93
2023-03-13T07:47:49.562Z,9.94
2023-03-13T07:52:51.357Z,9.97
2023-03-13T07:57:52.997Z,10.06
2023-03-13T08:02:54.675Z,10.02
2023-03-13T08:07:56.339Z,10.01
2023-03-13T08:12:58.070Z,10.09
2023-03-13T08:17:59.689Z,10.08
2023-03-13T08:23:01.364Z,10.12
2023-03-13T08:28:03.509Z,10.23
2023-03-13T08:33:07.526Z,10.37
2023-03-13T08:38:09.468Z,10.49
2023-03-13T08:43:11.120Z,10.85
2023-03-13T08:48:12.789Z,11.05
2023-03-13T08:53:14.446Z,11.19
2023-03-13T08:58:16.123Z,11.29
2023-03-13T09:03:18.135Z,11.43
2023-03-13T09:08:19.793Z,11.47
2023-03-13T09:13:21.440Z,11.52
2023-03-13T09:18:24.017Z,11.60
2023-03-13T09:23:26.478Z,11.66
2023-03-13T09:28:28.953Z,11.80
2023-03-13T09:33:30.611Z,11.89
2023-03-13T09:38:32.573Z,11.75
2023-03-13T09:43:58.336Z,11.59
2023-03-13T09:49:04.009Z,11.67
2023-03-13T09:54:26.194Z,11.78
2023-03-13T09:59:30.123Z,11.85
2023-03-13T10:04:46.856Z,11.92
2023-03-13T10:09:48.548Z,11.80
2023-03-13T10:15:08.364Z,12.14
2023-03-13T10:20:33.404Z,12.48
2023-03-13T10:25:39.787Z,12.67
2023-03-13T10:30:47.706Z,12.83
2023-03-13T10:36:10.131Z,13.00
2023-03-13T10:41:29.078Z,13.03
2023-03-13T10:46:33.339Z,12.99
2023-03-13T10:51:38.817Z,13.16
2023-03-13T10:56:40.656Z,13.00
2023-03-13T11:01:42.683Z,13.00
2023-03-13T11:06:50.838Z,13.12
2023-03-13T11:12:02.116Z,13.07
2023-03-13T11:17:23.577Z,13.03
2023-03-13T11:22:53.602Z,13.33
2023-03-13T11:27:58.186Z,13.34
2023-03-13T11:33:10.326Z,13.25
2023-03-13T11:38:38.165Z,13.50
2023-03-13T11:44:11.634Z,13.18
2023-03-13T11:49:41.781Z,13.25
2023-03-13T11:54:49.462Z,13.41
2023-03-13T12:00:16.393Z,13.24
2023-03-13T12:05:21.062Z,13.03
2023-03-13T12:10:40.070Z,12.59
2023-03-13T12:15:49.718Z,12.75
2023-03-13T12:20:57.429Z,12.78
2023-03-13T12:26:06.507Z,12.94
2023-03-13T12:31:22.820Z,12.56
2023-03-13T12:36:38.355Z,12.76
2023-03-13T12:41:45.072Z,13.03
2023-03-13T12:46:53.484Z,13.02
2023-03-13T12:52:12.893Z,13.10
2023-03-13T12:57:27.462Z,13.26
2023-03-13T13:02:30.758Z,13.41
2023-03-13T13:07:35.575Z,13.33
2023-03-13T13:12:41.522Z,13.39
2023-03-13T13:17:51.536Z,13.44
2023-03-13T13:22:54.015Z,13.60
2023-03-13T13:27:56.143Z,13.54
2023-03-13T13:33:20.417Z,13.49
2023-03-13T13:38:30.164Z,13.49
2023-03-13T13:44:10.405Z,13.35
2023-03-13T13:49:18.894Z,13.26
2023-03-13T13:54:42.315Z,13.20
2023-03-13T13:59:47.109Z,13.25
2023-03-13T14:05:16.585Z,13.19
2023-03-13T14:10:27.213Z,13.14
2023-03-13T14:15:34.624Z,13.22
2023-03-13T14:20:38.804Z,13.15
2023-03-13T14:25:50.934Z,13.05
2023-03-13T14:30:56.644Z,13.04
2023-03-13T14:35:58.527Z,13.07
2023-03-13T14:41:00.320Z,12.97
2023-03-13T14:46:15.871Z,12.85
2023-03-13T14:51:22.602Z,12.63
2023-03-13T14:56:33.638Z,12.70
2023-03-13T15:01:35.460Z,12.52
2023-03-13T15:06:38.358Z,12.43
2023-03-13T15:11:43.312Z,12.38
2023-03-13T15:16:44.974Z,12.28
2023-03-13T15:21:51.665Z,12.22
2023-03-13T15:26:53.342Z,12.17
2023-03-13T15:31:55.045Z,12.26
2023-03-13T15:36:56.701Z,12.07
2023-03-13T15:41:58.401Z,12.06
2023-03-13T15:47:00.147Z,11.85
2023-03-13T15:52:01.791Z,11.70
2023-03-13T15:57:03.592Z,11.55
2023-03-13T16:02:14.701Z,11.53
2023-03-13T16:07:20.831Z,11.46
2023-03-13T16:12:22.510Z,11.35
2023-03-13T16:17:25.964Z,11.31
2023-03-13T16:22:27.657Z,11.14
2023-03-13T16:27:29.574Z,11.04
2023-03-13T16:32:31.238Z,10.81
2023-03-13T16:37:32.949Z,10.83
2023-03-13T16:42:34.606Z,10.69
2023-03-13T16:47:36.310Z,10.66
2023-03-13T16:52:37.840Z,10.53
2023-03-13T16:57:39.710Z,10.57
2023-03-13T17:02:41.455Z,10.30
2023-03-13T17:07:45.007Z,10.24
2023-03-13T17:12:46.772Z,10.36
2023-03-13T17:17:51.971Z,10.31
2023-03-13T17:22:56.339Z,10.28
2023-03-13T17:27:57.990Z,10.15
2023-03-13T17:33:00.881Z,10.10
2023-03-13T17:38:03.165Z,9.85
2023-03-13T17:43:04.834Z,10.03
2023-03-13T17:48:12.237Z,9.96
2023-03-13T17:53:13.845Z,9.95
2023-03-13T17:58:15.565Z,9.97
2023-03-13T18:03:17.471Z,9.97
2023-03-13T18:08:19.188Z,9.96
2023-03-13T18:13:20.772Z,10.04
2023-03-13T18:18:22.479Z,10.04
2023-03-13T18:23:24.153Z,10.08
2023-03-13T18:28:25.821Z,9.98
2023-03-13T18:33:28.234Z,10.01
2023-03-13T18:38:29.905Z,9.91
2023-03-13T18:43:31.528Z,9.92
2023-03-13T18:48:33.178Z,10.02
2023-03-13T18:53:34.850Z,9.87
2023-03-13T18:58:36.513Z,9.81
2023-03-13T19:03:38.196Z,9.72
2023-03-13T19:08:39.802Z,9.67
2023-03-13T19:13:41.451Z,9.63
2023-03-13T19:18:44.392Z,9.52
2023-03-13T19:23:46.405Z,9.47
2023-03-13T19:28:48.100Z,9.43
2023-03-13T19:33:50.469Z,9.51
2023-03-13T19:38:52.059Z,9.61
2023-03-13T19:43:53.648Z,9.80
2023-03-13T19:48:57.457Z,9.86
2023-03-13T19:53:59.241Z,9.73
2023-03-13T19:59:03.597Z,9.74
2023-03-13T20:04:05.348Z,9.71
2023-03-13T20:09:09.751Z,9.74
2023-03-13T20:14:11.532Z,9.72
2023-03-13T20:19:13.268Z,9.67
2023-03-13T20:24:14.904Z,9.79
2023-03-13T20:29:16.567Z,9.70
2023-03-13T20:34:18.220Z,9.66
2023-03-13T20:39:19.918Z,9.71
2023-03-13T20:44:22.048Z,9.75
2023-03-13T20:49:23.685Z,9.72
2023-03-13T20:54:25.325Z,9.75
2023-03-13T20:59:29.037Z,9.83
2023-03-13T21:04:30.752Z,9.85
2023-03-13T21:09:34.116Z,9.81
2023-03-13T21:14:36.439Z,9.87
2023-03-13T21:19:38.089Z,9.92
2023-03-13T21:24:40.650Z,9.99
2023-03-13T21:29:44.074Z,10.02
2023-03-13T21:34:46.408Z,10.11
2023-03-13T21:39:52.314Z,10.14
2023-03-13T21:44:54.216Z,10.22
2023-03-13T21:49:56.545Z,10.29
2023-03-13T21:54:58.542Z,10.41
2023-03-13T22:00:00.161Z,10.46
2023-03-13T22:05:02.565Z,10.48
2023-03-13T22:10:04.589Z,10.50
2023-03-13T22:15:07.059Z,10.55
2023-03-13T22:20:10.633Z,10.45
2023-03-13T22:25:12.251Z,10.48
2023-03-13T22:30:14.064Z,10.41
2023-03-13T22:35:16.403Z,10.38
2023-03-13T22:40:20.341Z,10.39
2023-03-13T22:45:22.528Z,10.39
2023-03-13T22:50:25.794Z,10.34
2023-03-13T22:55:27.766Z,10.28
2023-03-13T23:00:29.435Z,10.20
2023-03-13T23:05:31.020Z,10.19
2023-03-13T23:10:32.668Z,10.09
2023-03-13T23:15:54.727Z,10.03
2023-03-13T23:20:55.926Z,9.93
2023-03-13T23:26:01.703Z,9.79
2023-03-13T23:31:29.644Z,9.80
2023-03-13T23:36:31.214Z,9.70
2023-03-13T23:41:32.865Z,9.63
2023-03-13T23:46:34.497Z,9.58
2023-03-13T23:51:36.333Z,9.41
2023-03-13T23:56:37.906Z,9.37
